Live Weather Radar

YMHB Hobart METAR

METAR YMHB 301400Z 35007KT 9999 FEW040 BKN230 11/07 Q1011 RMK RF00.0/000.0

YMHB Hobart Terminal Area Forecast (TAF)

TAF YMHB 301106Z 3012/0112 34012KT 9999 FEW020 SCT030 FM010000 34020G30KT 9999 -SHRA FEW020 SCT035 FM010300 29015G25KT 9999 -SHRA FEW025 SCT035 FM010600 27015KT 9999 -SHRA SCT025 SCT035 FM010900 29010KT 9999 -SHRA SCT030 SCT040 INTER 0102/0105 5000 SHRA BKN020 BKN035 RMK FM301200 MOD TURB BLW 5000FT TILL301400 FM301400 MOD/SEV TURB BLW 5000FT TILL010400 FM010400 MOD TURB BLW 5000FT T 12 12 13 14 Q 1012 1010 1007 1005